sensor_id;sensor_type;location;lat;lon;timestamp;pressure;altitude;pressure_sealevel;temperature;humidity
70909;BME280;58554;52.006;5.926;2022-07-23T00:02:13;101067.28;;;21.07;51.39
70909;BME280;58554;52.006;5.926;2022-07-23T00:04:40;101064.44;;;21.09;51.24
70909;BME280;58554;52.006;5.926;2022-07-23T00:07:06;101058.19;;;21.08;51.11
70909;BME280;58554;52.006;5.926;2022-07-23T00:09:35;101074.31;;;21.08;51.19
70909;BME280;58554;52.006;5.926;2022-07-23T00:12:02;101075.47;;;21.06;51.37
70909;BME280;58554;52.006;5.926;2022-07-23T00:14:30;101066.72;;;21.03;51.41
70909;BME280;58554;52.006;5.926;2022-07-23T00:16:56;101075.78;;;21.02;51.63
70909;BME280;58554;52.006;5.926;2022-07-23T00:19:23;101075.94;;;21.01;51.60
70909;BME280;58554;52.006;5.926;2022-07-23T00:21:49;101065.47;;;20.98;51.41
70909;BME280;58554;52.006;5.926;2022-07-23T00:24:15;101055.72;;;20.97;51.58
70909;BME280;58554;52.006;5.926;2022-07-23T00:26:44;101063.78;;;20.97;51.74
70909;BME280;58554;52.006;5.926;2022-07-23T00:29:11;101057.84;;;20.93;51.69
70909;BME280;58554;52.006;5.926;2022-07-23T00:31:37;101060.84;;;20.90;51.77
70909;BME280;58554;52.006;5.926;2022-07-23T00:34:04;101065.53;;;20.88;51.75
70909;BME280;58554;52.006;5.926;2022-07-23T00:36:30;101063.56;;;20.80;51.60
70909;BME280;58554;52.006;5.926;2022-07-23T00:38:57;101069.38;;;20.76;51.83
70909;BME280;58554;52.006;5.926;2022-07-23T00:41:23;101057.81;;;20.66;52.06
70909;BME280;58554;52.006;5.926;2022-07-23T00:43:52;101058.13;;;20.62;51.96
70909;BME280;58554;52.006;5.926;2022-07-23T00:46:19;101059.25;;;20.60;52.02
70909;BME280;58554;52.006;5.926;2022-07-23T00:48:46;101060.53;;;20.56;52.52
70909;BME280;58554;52.006;5.926;2022-07-23T00:51:14;101059.00;;;20.53;52.37
70909;BME280;58554;52.006;5.926;2022-07-23T00:53:42;101051.06;;;20.52;52.65
70909;BME280;58554;52.006;5.926;2022-07-23T00:56:09;101056.59;;;20.50;52.31
70909;BME280;58554;52.006;5.926;2022-07-23T00:58:38;101056.03;;;20.47;52.64
70909;BME280;58554;52.006;5.926;2022-07-23T01:01:11;101052.91;;;20.41;52.57
70909;BME280;58554;52.006;5.926;2022-07-23T01:03:37;101048.81;;;20.37;52.65
70909;BME280;58554;52.006;5.926;2022-07-23T01:06:04;101052.78;;;20.33;52.84
70909;BME280;58554;52.006;5.926;2022-07-23T01:08:31;101055.91;;;20.29;52.78
70909;BME280;58554;52.006;5.926;2022-07-23T01:10:58;101044.63;;;20.25;52.88
70909;BME280;58554;52.006;5.926;2022-07-23T01:13:24;101056.47;;;20.22;52.84
70909;BME280;58554;52.006;5.926;2022-07-23T01:15:51;101044.31;;;20.18;52.91
70909;BME280;58554;52.006;5.926;2022-07-23T01:18:20;101041.81;;;20.17;52.74
70909;BME280;58554;52.006;5.926;2022-07-23T01:20:46;101043.09;;;20.13;52.99
70909;BME280;58554;52.006;5.926;2022-07-23T01:23:15;101044.19;;;20.10;52.97
70909;BME280;58554;52.006;5.926;2022-07-23T01:25:48;101042.94;;;20.05;52.87
70909;BME280;58554;52.006;5.926;2022-07-23T01:28:15;101036.88;;;20.02;52.96
70909;BME280;58554;52.006;5.926;2022-07-23T01:30:42;101037.84;;;20.01;53.02
70909;BME280;58554;52.006;5.926;2022-07-23T01:33:08;101029.25;;;19.98;53.15
70909;BME280;58554;52.006;5.926;2022-07-23T01:35:35;101035.72;;;19.95;53.05
70909;BME280;58554;52.006;5.926;2022-07-23T01:38:01;101042.25;;;19.93;52.95
70909;BME280;58554;52.006;5.926;2022-07-23T01:40:30;101044.22;;;19.91;53.20
70909;BME280;58554;52.006;5.926;2022-07-23T01:42:57;101040.84;;;19.89;53.14
70909;BME280;58554;52.006;5.926;2022-07-23T01:45:23;101035.59;;;19.87;53.09
70909;BME280;58554;52.006;5.926;2022-07-23T01:47:50;101037.75;;;19.84;53.02
70909;BME280;58554;52.006;5.926;2022-07-23T01:50:17;101038.72;;;19.82;53.13
70909;BME280;58554;52.006;5.926;2022-07-23T01:52:43;101041.41;;;19.82;53.35
70909;BME280;58554;52.006;5.926;2022-07-23T01:55:10;101035.31;;;19.80;53.11
70909;BME280;58554;52.006;5.926;2022-07-23T01:57:39;101030.97;;;19.79;53.13
70909;BME280;58554;52.006;5.926;2022-07-23T02:00:08;101034.63;;;19.78;53.15
70909;BME280;58554;52.006;5.926;2022-07-23T02:02:35;101033.91;;;19.76;53.31
70909;BME280;58554;52.006;5.926;2022-07-23T02:05:02;101033.06;;;19.76;53.07
70909;BME280;58554;52.006;5.926;2022-07-23T02:07:29;101036.59;;;19.76;53.30
70909;BME280;58554;52.006;5.926;2022-07-23T02:09:55;101037.03;;;19.72;53.05
70909;BME280;58554;52.006;5.926;2022-07-23T02:12:21;101041.56;;;19.71;53.43
70909;BME280;58554;52.006;5.926;2022-07-23T02:14:50;101044.22;;;19.71;53.18
70909;BME280;58554;52.006;5.926;2022-07-23T02:17:17;101041.97;;;19.67;53.40
70909;BME280;58554;52.006;5.926;2022-07-23T02:19:43;101036.75;;;19.65;53.32
70909;BME280;58554;52.006;5.926;2022-07-23T02:22:09;101025.44;;;19.61;53.12
70909;BME280;58554;52.006;5.926;2022-07-23T02:24:36;101030.94;;;19.60;53.30
70909;BME280;58554;52.006;5.926;2022-07-23T02:27:03;101034.00;;;19.55;53.48
70909;BME280;58554;52.006;5.926;2022-07-23T02:29:29;101027.09;;;19.53;53.22
70909;BME280;58554;52.006;5.926;2022-07-23T02:31:58;101032.72;;;19.50;53.23
70909;BME280;58554;52.006;5.926;2022-07-23T02:34:24;101033.72;;;19.49;53.51
70909;BME280;58554;52.006;5.926;2022-07-23T02:36:51;101038.25;;;19.48;53.29
70909;BME280;58554;52.006;5.926;2022-07-23T02:39:17;101027.66;;;19.47;53.37
70909;BME280;58554;52.006;5.926;2022-07-23T02:41:44;101019.75;;;19.45;53.25
70909;BME280;58554;52.006;5.926;2022-07-23T02:44:10;101025.94;;;19.46;53.35
70909;BME280;58554;52.006;5.926;2022-07-23T02:46:37;101029.63;;;19.45;53.45
70909;BME280;58554;52.006;5.926;2022-07-23T02:49:06;101040.38;;;19.45;53.17
70909;BME280;58554;52.006;5.926;2022-07-23T02:51:32;101028.94;;;19.42;53.54
70909;BME280;58554;52.006;5.926;2022-07-23T02:53:59;101022.72;;;19.42;53.34
70909;BME280;58554;52.006;5.926;2022-07-23T02:56:25;101038.66;;;19.43;53.31
70909;BME280;58554;52.006;5.926;2022-07-23T02:58:52;101039.78;;;19.41;53.35
70909;BME280;58554;52.006;5.926;2022-07-23T03:01:18;101037.53;;;19.36;53.65
70909;BME280;58554;52.006;5.926;2022-07-23T03:03:44;101030.31;;;19.37;53.37
70909;BME280;58554;52.006;5.926;2022-07-23T03:06:13;101037.81;;;19.33;53.68
70909;BME280;58554;52.006;5.926;2022-07-23T03:08:40;101033.72;;;19.29;53.87
70909;BME280;58554;52.006;5.926;2022-07-23T03:11:07;101039.34;;;19.26;53.79
70909;BME280;58554;52.006;5.926;2022-07-23T03:13:33;101040.47;;;19.24;53.77
70909;BME280;58554;52.006;5.926;2022-07-23T03:15:59;101033.56;;;19.21;53.71
70909;BME280;58554;52.006;5.926;2022-07-23T03:18:26;101040.72;;;19.20;53.95
70909;BME280;58554;52.006;5.926;2022-07-23T03:20:52;101035.53;;;19.19;54.03
70909;BME280;58554;52.006;5.926;2022-07-23T03:23:21;101038.34;;;19.17;54.06
70909;BME280;58554;52.006;5.926;2022-07-23T03:25:48;101048.47;;;19.14;54.05
70909;BME280;58554;52.006;5.926;2022-07-23T03:28:14;101045.09;;;19.12;54.15
70909;BME280;58554;52.006;5.926;2022-07-23T03:30:41;101047.88;;;19.10;54.10
70909;BME280;58554;52.006;5.926;2022-07-23T03:33:08;101043.66;;;19.08;54.25
70909;BME280;58554;52.006;5.926;2022-07-23T03:35:34;101046.63;;;19.05;54.28
70909;BME280;58554;52.006;5.926;2022-07-23T03:38:01;101049.44;;;19.03;54.25
70909;BME280;58554;52.006;5.926;2022-07-23T03:40:30;101043.38;;;19.01;54.25
70909;BME280;58554;52.006;5.926;2022-07-23T03:42:56;101040.56;;;19.02;54.39
70909;BME280;58554;52.006;5.926;2022-07-23T03:45:23;101039.84;;;19.00;54.30
70909;BME280;58554;52.006;5.926;2022-07-23T03:47:49;101044.50;;;18.98;54.20
70909;BME280;58554;52.006;5.926;2022-07-23T03:50:16;101049.69;;;18.90;54.24
70909;BME280;58554;52.006;5.926;2022-07-23T03:52:42;101053.31;;;18.79;54.14
70909;BME280;58554;52.006;5.926;2022-07-23T03:55:09;101058.00;;;18.66;54.43
70909;BME280;58554;52.006;5.926;2022-07-23T03:57:38;101060.28;;;18.50;54.84
70909;BME280;58554;52.006;5.926;2022-07-23T04:00:07;101057.38;;;18.32;54.83
70909;BME280;58554;52.006;5.926;2022-07-23T04:02:34;101066.97;;;18.13;55.17
70909;BME280;58554;52.006;5.926;2022-07-23T04:05:02;101054.31;;;17.94;55.52
70909;BME280;58554;52.006;5.926;2022-07-23T04:07:29;101065.44;;;17.78;56.14
70909;BME280;58554;52.006;5.926;2022-07-23T04:09:56;101057.94;;;17.61;56.18
70909;BME280;58554;52.006;5.926;2022-07-23T04:12:22;101059.44;;;17.43;56.48
70909;BME280;58554;52.006;5.926;2022-07-23T04:14:51;101063.38;;;17.27;57.03
70909;BME280;58554;52.006;5.926;2022-07-23T04:17:18;101065.44;;;17.12;57.34
70909;BME280;58554;52.006;5.926;2022-07-23T04:19:44;101061.94;;;17.00;57.62
70909;BME280;58554;52.006;5.926;2022-07-23T04:22:11;101056.84;;;16.86;58.08
70909;BME280;58554;52.006;5.926;2022-07-23T04:24:38;101052.53;;;16.72;58.50
70909;BME280;58554;52.006;5.926;2022-07-23T04:27:05;101050.09;;;16.58;58.53
70909;BME280;58554;52.006;5.926;2022-07-23T04:29:32;101048.53;;;16.44;59.09
70909;BME280;58554;52.006;5.926;2022-07-23T04:32:01;101054.72;;;16.33;59.53
70909;BME280;58554;52.006;5.926;2022-07-23T04:34:28;101050.31;;;16.21;60.01
70909;BME280;58554;52.006;5.926;2022-07-23T04:36:54;101059.84;;;16.12;60.07
70909;BME280;58554;52.006;5.926;2022-07-23T04:39:21;101061.28;;;16.05;60.43
70909;BME280;58554;52.006;5.926;2022-07-23T04:41:48;101063.56;;;15.98;60.67
70909;BME280;58554;52.006;5.926;2022-07-23T04:44:14;101061.38;;;15.92;60.99
70909;BME280;58554;52.006;5.926;2022-07-23T04:46:41;101064.50;;;15.86;61.02
70909;BME280;58554;52.006;5.926;2022-07-23T04:49:10;101065.69;;;15.82;61.25
70909;BME280;58554;52.006;5.926;2022-07-23T04:51:36;101070.34;;;15.78;61.58
70909;BME280;58554;52.006;5.926;2022-07-23T04:54:03;101073.38;;;15.74;61.61
70909;BME280;58554;52.006;5.926;2022-07-23T04:56:29;101069.13;;;15.71;61.72
70909;BME280;58554;52.006;5.926;2022-07-23T04:58:56;101065.72;;;15.69;61.88
70909;BME280;58554;52.006;5.926;2022-07-23T05:01:22;101068.50;;;15.68;62.23
70909;BME280;58554;52.006;5.926;2022-07-23T05:03:49;101064.97;;;15.67;62.57
70909;BME280;58554;52.006;5.926;2022-07-23T05:06:18;101065.84;;;15.68;62.80
70909;BME280;58554;52.006;5.926;2022-07-23T05:08:44;101072.25;;;15.65;62.84
70909;BME280;58554;52.006;5.926;2022-07-23T05:11:10;101066.06;;;15.65;63.15
70909;BME280;58554;52.006;5.926;2022-07-23T05:13:37;101072.25;;;15.65;63.40
70909;BME280;58554;52.006;5.926;2022-07-23T05:16:04;101066.19;;;15.63;63.63
70909;BME280;58554;52.006;5.926;2022-07-23T05:18:31;101070.78;;;15.61;63.72
70909;BME280;58554;52.006;5.926;2022-07-23T05:20:57;101071.63;;;15.62;63.96
70909;BME280;58554;52.006;5.926;2022-07-23T05:23:26;101076.09;;;15.61;64.11
70909;BME280;58554;52.006;5.926;2022-07-23T05:25:53;101080.47;;;15.62;64.17
70909;BME280;58554;52.006;5.926;2022-07-23T05:28:19;101090.16;;;15.63;64.22
70909;BME280;58554;52.006;5.926;2022-07-23T05:30:45;101100.72;;;15.65;64.17
70909;BME280;58554;52.006;5.926;2022-07-23T05:33:12;101099.75;;;15.66;64.15
70909;BME280;58554;52.006;5.926;2022-07-23T05:35:38;101103.16;;;15.68;63.96
70909;BME280;58554;52.006;5.926;2022-07-23T05:38:05;101101.34;;;15.68;64.16
70909;BME280;58554;52.006;5.926;2022-07-23T05:40:34;101103.91;;;15.70;64.12
70909;BME280;58554;52.006;5.926;2022-07-23T05:43:00;101118.81;;;15.72;63.98
70909;BME280;58554;52.006;5.926;2022-07-23T05:45:27;101111.53;;;15.74;63.83
70909;BME280;58554;52.006;5.926;2022-07-23T05:47:53;101113.13;;;15.77;63.66
70909;BME280;58554;52.006;5.926;2022-07-23T05:50:20;101114.94;;;15.76;63.73
70909;BME280;58554;52.006;5.926;2022-07-23T05:52:46;101126.25;;;15.80;63.90
70909;BME280;58554;52.006;5.926;2022-07-23T05:55:13;101125.31;;;15.81;64.04
70909;BME280;58554;52.006;5.926;2022-07-23T05:57:42;101129.44;;;15.85;64.10
70909;BME280;58554;52.006;5.926;2022-07-23T06:00:10;101125.94;;;15.85;64.22
70909;BME280;58554;52.006;5.926;2022-07-23T06:02:37;101126.56;;;15.88;64.22
70909;BME280;58554;52.006;5.926;2022-07-23T06:05:06;101126.31;;;15.91;64.25
70909;BME280;58554;52.006;5.926;2022-07-23T06:07:34;101132.41;;;15.93;64.16
70909;BME280;58554;52.006;5.926;2022-07-23T06:10:01;101133.28;;;15.94;64.13
70909;BME280;58554;52.006;5.926;2022-07-23T06:12:27;101122.59;;;15.94;64.22
70909;BME280;58554;52.006;5.926;2022-07-23T06:14:56;101127.59;;;15.98;64.20
70909;BME280;58554;52.006;5.926;2022-07-23T06:17:23;101122.00;;;16.02;64.00
70909;BME280;58554;52.006;5.926;2022-07-23T06:19:49;101126.28;;;16.04;63.85
70909;BME280;58554;52.006;5.926;2022-07-23T06:22:16;101119.72;;;16.08;63.74
70909;BME280;58554;52.006;5.926;2022-07-23T06:24:42;101125.69;;;16.12;63.71
70909;BME280;58554;52.006;5.926;2022-07-23T06:27:08;101127.78;;;16.19;63.51
70909;BME280;58554;52.006;5.926;2022-07-23T06:29:35;101131.59;;;16.28;63.43
70909;BME280;58554;52.006;5.926;2022-07-23T06:32:05;101129.06;;;16.38;63.48
70909;BME280;58554;52.006;5.926;2022-07-23T06:34:31;101129.09;;;16.49;62.93
70909;BME280;58554;52.006;5.926;2022-07-23T06:36:58;101137.00;;;16.62;62.88
70909;BME280;58554;52.006;5.926;2022-07-23T06:39:24;101131.44;;;16.76;62.63
70909;BME280;58554;52.006;5.926;2022-07-23T06:41:51;101135.75;;;16.90;62.32
70909;BME280;58554;52.006;5.926;2022-07-23T06:44:18;101136.38;;;17.05;62.10
70909;BME280;58554;52.006;5.926;2022-07-23T06:46:45;101134.31;;;17.20;61.90
70909;BME280;58554;52.006;5.926;2022-07-23T06:49:14;101143.78;;;17.35;61.78
70909;BME280;58554;52.006;5.926;2022-07-23T06:51:40;101146.19;;;17.50;61.22
70909;BME280;58554;52.006;5.926;2022-07-23T06:54:06;101147.03;;;17.61;61.10
70909;BME280;58554;52.006;5.926;2022-07-23T06:56:33;101145.19;;;17.73;60.57
70909;BME280;58554;52.006;5.926;2022-07-23T06:58:59;101145.16;;;17.85;60.40
70909;BME280;58554;52.006;5.926;2022-07-23T07:01:26;101142.22;;;17.99;59.99
70909;BME280;58554;52.006;5.926;2022-07-23T07:03:52;101149.81;;;18.15;59.75
70909;BME280;58554;52.006;5.926;2022-07-23T07:06:21;101152.19;;;18.29;59.52
70909;BME280;58554;52.006;5.926;2022-07-23T07:08:47;101152.97;;;18.41;59.18
70909;BME280;58554;52.006;5.926;2022-07-23T07:11:14;101148.16;;;18.56;58.88
70909;BME280;58554;52.006;5.926;2022-07-23T07:13:40;101155.75;;;18.72;59.07
70909;BME280;58554;52.006;5.926;2022-07-23T07:16:07;101151.63;;;18.89;58.32
70909;BME280;58554;52.006;5.926;2022-07-23T07:18:34;101147.88;;;19.01;57.98
70909;BME280;58554;52.006;5.926;2022-07-23T07:21:00;101144.97;;;19.14;57.69
70909;BME280;58554;52.006;5.926;2022-07-23T07:23:29;101143.91;;;19.26;57.09
70909;BME280;58554;52.006;5.926;2022-07-23T07:25:55;101152.00;;;19.36;56.96
70909;BME280;58554;52.006;5.926;2022-07-23T07:28:22;101144.66;;;19.48;56.71
70909;BME280;58554;52.006;5.926;2022-07-23T07:30:48;101142.31;;;19.54;56.44
70909;BME280;58554;52.006;5.926;2022-07-23T07:33:15;101151.28;;;19.65;55.81
70909;BME280;58554;52.006;5.926;2022-07-23T07:35:41;101151.41;;;19.73;55.73
70909;BME280;58554;52.006;5.926;2022-07-23T07:38:08;101143.38;;;19.82;55.70
70909;BME280;58554;52.006;5.926;2022-07-23T07:40:36;101154.00;;;19.94;55.40
70909;BME280;58554;52.006;5.926;2022-07-23T07:43:03;101145.09;;;20.03;55.62
70909;BME280;58554;52.006;5.926;2022-07-23T07:45:29;101143.25;;;20.13;55.21
70909;BME280;58554;52.006;5.926;2022-07-23T07:47:57;101150.63;;;20.21;54.61
70909;BME280;58554;52.006;5.926;2022-07-23T07:50:24;101149.88;;;20.29;55.02
70909;BME280;58554;52.006;5.926;2022-07-23T07:52:51;101152.44;;;20.40;54.43
70909;BME280;58554;52.006;5.926;2022-07-23T07:55:17;101150.50;;;20.42;53.96
70909;BME280;58554;52.006;5.926;2022-07-23T07:57:46;101158.38;;;20.43;53.41
70909;BME280;58554;52.006;5.926;2022-07-23T08:00:13;101159.41;;;20.42;53.31
70909;BME280;58554;52.006;5.926;2022-07-23T08:02:45;101169.72;;;20.47;52.82
70909;BME280;58554;52.006;5.926;2022-07-23T08:05:13;101166.44;;;20.53;53.14
70909;BME280;58554;52.006;5.926;2022-07-23T08:07:41;101167.41;;;20.62;53.00
70909;BME280;58554;52.006;5.926;2022-07-23T08:10:09;101172.66;;;20.73;52.36
70909;BME280;58554;52.006;5.926;2022-07-23T08:12:43;101173.63;;;20.82;52.48
70909;BME280;58554;52.006;5.926;2022-07-23T08:15:15;101176.13;;;20.93;52.38
70909;BME280;58554;52.006;5.926;2022-07-23T08:17:43;101168.88;;;21.03;52.29
70909;BME280;58554;52.006;5.926;2022-07-23T08:20:13;101170.53;;;21.14;51.68
70909;BME280;58554;52.006;5.926;2022-07-23T08:22:45;101170.13;;;21.19;51.32
70909;BME280;58554;52.006;5.926;2022-07-23T08:25:13;101175.34;;;21.20;51.49
70909;BME280;58554;52.006;5.926;2022-07-23T08:27:40;101185.84;;;21.23;51.19
70909;BME280;58554;52.006;5.926;2022-07-23T08:30:10;101181.03;;;21.27;50.96
70909;BME280;58554;52.006;5.926;2022-07-23T08:32:54;101175.19;;;21.32;50.97
70909;BME280;58554;52.006;5.926;2022-07-23T08:35:23;101174.19;;;21.33;50.64
70909;BME280;58554;52.006;5.926;2022-07-23T08:37:52;101185.50;;;21.36;50.43
70909;BME280;58554;52.006;5.926;2022-07-23T08:40:19;101180.13;;;21.36;50.18
70909;BME280;58554;52.006;5.926;2022-07-23T08:42:48;101179.81;;;21.39;50.27
70909;BME280;58554;52.006;5.926;2022-07-23T08:45:20;101179.66;;;21.41;50.08
70909;BME280;58554;52.006;5.926;2022-07-23T08:47:49;101184.91;;;21.42;49.71
70909;BME280;58554;52.006;5.926;2022-07-23T08:50:16;101190.69;;;21.48;49.71
70909;BME280;58554;52.006;5.926;2022-07-23T08:52:42;101178.09;;;21.48;49.49
70909;BME280;58554;52.006;5.926;2022-07-23T08:55:09;101187.00;;;21.49;49.72
70909;BME280;58554;52.006;5.926;2022-07-23T08:57:36;101183.16;;;21.51;49.51
70909;BME280;58554;52.006;5.926;2022-07-23T09:00:05;101179.50;;;21.52;49.67
70909;BME280;58554;52.006;5.926;2022-07-23T09:02:40;101183.59;;;21.56;49.90
70909;BME280;58554;52.006;5.926;2022-07-23T09:05:08;101179.41;;;21.62;49.46
70909;BME280;58554;52.006;5.926;2022-07-23T09:07:35;101183.13;;;21.61;49.49
70909;BME280;58554;52.006;5.926;2022-07-23T09:10:08;101176.44;;;21.65;49.47
70909;BME280;58554;52.006;5.926;2022-07-23T09:12:36;101178.69;;;21.70;48.98
70909;BME280;58554;52.006;5.926;2022-07-23T09:15:06;101183.91;;;21.71;48.86
70909;BME280;58554;52.006;5.926;2022-07-23T09:17:42;101179.94;;;21.75;48.42
70909;BME280;58554;52.006;5.926;2022-07-23T09:20:10;101187.84;;;21.77;47.80
70909;BME280;58554;52.006;5.926;2022-07-23T09:22:38;101183.31;;;21.77;47.35
70909;BME280;58554;52.006;5.926;2022-07-23T09:25:11;101180.75;;;21.76;47.38
70909;BME280;58554;52.006;5.926;2022-07-23T09:27:52;101179.47;;;21.80;47.29
70909;BME280;58554;52.006;5.926;2022-07-23T09:30:21;101175.75;;;21.81;47.59
70909;BME280;58554;52.006;5.926;2022-07-23T09:33:07;101179.16;;;21.83;47.89
70909;BME280;58554;52.006;5.926;2022-07-23T09:35:46;101183.78;;;21.91;47.61
70909;BME280;58554;52.006;5.926;2022-07-23T09:38:15;101182.63;;;21.93;47.55
70909;BME280;58554;52.006;5.926;2022-07-23T09:40:44;101180.47;;;21.97;46.85
70909;BME280;58554;52.006;5.926;2022-07-23T09:43:11;101180.47;;;21.97;46.63
70909;BME280;58554;52.006;5.926;2022-07-23T09:45:39;101186.56;;;21.99;46.41
70909;BME280;58554;52.006;5.926;2022-07-23T09:48:16;101178.19;;;22.02;46.47
70909;BME280;58554;52.006;5.926;2022-07-23T09:50:43;101188.00;;;22.03;46.36
70909;BME280;58554;52.006;5.926;2022-07-23T09:53:23;101185.28;;;22.03;46.38
70909;BME280;58554;52.006;5.926;2022-07-23T09:55:51;101185.28;;;22.03;46.60
70909;BME280;58554;52.006;5.926;2022-07-23T09:58:25;101185.84;;;22.07;45.86
70909;BME280;58554;52.006;5.926;2022-07-23T10:00:52;101186.84;;;22.06;45.91
70909;BME280;58554;52.006;5.926;2022-07-23T10:03:23;101183.28;;;22.05;45.89
70909;BME280;58554;52.006;5.926;2022-07-23T10:05:50;101185.66;;;22.08;45.88
70909;BME280;58554;52.006;5.926;2022-07-23T10:08:18;101182.28;;;22.06;46.16
70909;BME280;58554;52.006;5.926;2022-07-23T10:10:46;101177.31;;;22.11;46.52
70909;BME280;58554;52.006;5.926;2022-07-23T10:13:14;101184.44;;;22.20;46.39
70909;BME280;58554;52.006;5.926;2022-07-23T10:15:41;101179.31;;;22.27;45.95
70909;BME280;58554;52.006;5.926;2022-07-23T10:18:10;101176.28;;;22.30;45.29
70909;BME280;58554;52.006;5.926;2022-07-23T10:20:40;101176.16;;;22.32;45.35
70909;BME280;58554;52.006;5.926;2022-07-23T10:23:19;101175.81;;;22.35;45.16
70909;BME280;58554;52.006;5.926;2022-07-23T10:25:58;101172.97;;;22.36;45.42
70909;BME280;58554;52.006;5.926;2022-07-23T10:29:02;101176.91;;;22.42;45.37
70909;BME280;58554;52.006;5.926;2022-07-23T10:31:50;101171.34;;;22.43;45.47
70909;BME280;58554;52.006;5.926;2022-07-23T10:34:30;101167.66;;;22.44;45.54
70909;BME280;58554;52.006;5.926;2022-07-23T10:37:13;101176.81;;;22.52;45.59
70909;BME280;58554;52.006;5.926;2022-07-23T10:39:43;101167.41;;;22.56;45.13
70909;BME280;58554;52.006;5.926;2022-07-23T10:42:10;101167.66;;;22.62;45.34
70909;BME280;58554;52.006;5.926;2022-07-23T10:44:40;101169.88;;;22.67;44.73
70909;BME280;58554;52.006;5.926;2022-07-23T10:47:08;101168.53;;;22.71;44.95
70909;BME280;58554;52.006;5.926;2022-07-23T10:49:36;101167.22;;;22.75;44.69
70909;BME280;58554;52.006;5.926;2022-07-23T10:52:32;101161.22;;;22.81;44.50
70909;BME280;58554;52.006;5.926;2022-07-23T10:58:09;101158.78;;;22.96;45.01
70909;BME280;58554;52.006;5.926;2022-07-23T11:00:36;101164.91;;;23.07;44.65
70909;BME280;58554;52.006;5.926;2022-07-23T11:03:04;101158.88;;;23.13;44.33
70909;BME280;58554;52.006;5.926;2022-07-23T11:05:51;101172.72;;;23.18;44.57
70909;BME280;58554;52.006;5.926;2022-07-23T11:08:21;101159.63;;;23.23;44.55
70909;BME280;58554;52.006;5.926;2022-07-23T11:10:50;101161.97;;;23.26;44.67
70909;BME280;58554;52.006;5.926;2022-07-23T11:13:30;101155.94;;;23.32;44.12
70909;BME280;58554;52.006;5.926;2022-07-23T11:16:12;101164.38;;;23.37;44.24
70909;BME280;58554;52.006;5.926;2022-07-23T11:18:54;101164.75;;;23.42;44.58
70909;BME280;58554;52.006;5.926;2022-07-23T11:21:41;101156.00;;;23.49;44.33
70909;BME280;58554;52.006;5.926;2022-07-23T11:24:13;101159.41;;;23.51;44.49
70909;BME280;58554;52.006;5.926;2022-07-23T11:26:44;101161.47;;;23.57;44.12
70909;BME280;58554;52.006;5.926;2022-07-23T11:29:43;101173.28;;;23.64;44.00
70909;BME280;58554;52.006;5.926;2022-07-23T11:32:27;101158.94;;;23.63;43.35
70909;BME280;58554;52.006;5.926;2022-07-23T11:35:26;101160.16;;;23.69;43.07
70909;BME280;58554;52.006;5.926;2022-07-23T11:37:54;101161.84;;;23.70;43.12
70909;BME280;58554;52.006;5.926;2022-07-23T11:40:33;101161.69;;;23.72;43.12
70909;BME280;58554;52.006;5.926;2022-07-23T11:43:02;101163.88;;;23.76;42.91
70909;BME280;58554;52.006;5.926;2022-07-23T11:45:33;101154.78;;;23.86;43.18
70909;BME280;58554;52.006;5.926;2022-07-23T11:48:01;101162.91;;;23.94;43.08
70909;BME280;58554;52.006;5.926;2022-07-23T11:50:29;101150.56;;;23.99;42.45
70909;BME280;58554;52.006;5.926;2022-07-23T11:52:56;101151.94;;;24.03;42.00
70909;BME280;58554;52.006;5.926;2022-07-23T11:55:23;101149.06;;;24.05;41.31
70909;BME280;58554;52.006;5.926;2022-07-23T11:57:53;101159.53;;;24.08;41.30
70909;BME280;58554;52.006;5.926;2022-07-23T12:00:21;101156.00;;;24.08;40.98
70909;BME280;58554;52.006;5.926;2022-07-23T12:02:50;101167.63;;;24.08;41.44
70909;BME280;58554;52.006;5.926;2022-07-23T12:05:20;101156.84;;;24.08;40.67
70909;BME280;58554;52.006;5.926;2022-07-23T12:07:49;101159.38;;;24.10;40.87
70909;BME280;58554;52.006;5.926;2022-07-23T12:10:18;101160.88;;;24.12;40.83
70909;BME280;58554;52.006;5.926;2022-07-23T12:12:48;101157.19;;;24.13;40.56
70909;BME280;58554;52.006;5.926;2022-07-23T12:15:21;101160.41;;;24.17;40.70
70909;BME280;58554;52.006;5.926;2022-07-23T12:17:52;101158.06;;;24.22;40.68
70909;BME280;58554;52.006;5.926;2022-07-23T12:20:22;101163.16;;;24.25;40.80
70909;BME280;58554;52.006;5.926;2022-07-23T12:22:51;101155.69;;;24.27;40.64
70909;BME280;58554;52.006;5.926;2022-07-23T12:25:20;101155.06;;;24.25;41.39
70909;BME280;58554;52.006;5.926;2022-07-23T12:27:57;101149.97;;;24.30;41.04
70909;BME280;58554;52.006;5.926;2022-07-23T12:30:31;101154.84;;;24.35;41.20
70909;BME280;58554;52.006;5.926;2022-07-23T12:32:59;101154.84;;;24.43;41.27
70909;BME280;58554;52.006;5.926;2022-07-23T12:35:32;101152.81;;;24.53;41.13
70909;BME280;58554;52.006;5.926;2022-07-23T12:38:03;101155.53;;;24.61;41.32
70909;BME280;58554;52.006;5.926;2022-07-23T12:40:34;101150.63;;;24.65;40.68
70909;BME280;58554;52.006;5.926;2022-07-23T12:43:04;101149.06;;;24.71;41.41
70909;BME280;58554;52.006;5.926;2022-07-23T12:45:46;101141.63;;;24.81;40.75
70909;BME280;58554;52.006;5.926;2022-07-23T12:48:19;101151.09;;;24.85;40.93
70909;BME280;58554;52.006;5.926;2022-07-23T12:51:05;101137.09;;;24.90;40.30
70909;BME280;58554;52.006;5.926;2022-07-23T12:53:37;101140.63;;;24.90;40.42
70909;BME280;58554;52.006;5.926;2022-07-23T12:56:06;101140.28;;;24.93;40.37
70909;BME280;58554;52.006;5.926;2022-07-23T12:58:43;101139.25;;;25.02;40.58
70909;BME280;58554;52.006;5.926;2022-07-23T13:01:25;101135.31;;;25.13;40.77
70909;BME280;58554;52.006;5.926;2022-07-23T13:03:59;101128.31;;;25.27;40.87